TAF LFSD
METAR LFSD
LFSD 091100Z AUTO 20006KT 170V230 9999 FEW016 SCT140 06/02 Q1010=
LFSD 091030Z AUTO 18005KT 9999 FEW017 05/01 Q1010=
LFSD 091000Z AUTO 23005KT 190V250 9999 SCT016 04/01 Q1010=
LFSD 090930Z AUTO 23005KT 200V260 9999 SCT016 04/01 Q1010=
LFSD 090900Z AUTO 23005KT CAVOK 03/01 Q1010=
WC LFSD
WS LFSD
WV LFSD